Friendship, Louisiana
Current Conditions -  °F | °C
As of 2:15 PM on Saturday 20 Dec 2014 (Local Time) from KRSN Reporting Station
Scattered Clouds Scattered Clouds  
Wind Chill: 55°   Ceiling: Unl
Heat Index: 55°   Visibility: 10mi
Dew Point: 43°   Wind: 6mph
Humidity: 64%   Direction: 30°NNE
Pressure: 30.21"   Gusts: NA
Location:  32.0547°N, 92.4144°W
Report Text: KRSN 202015Z AUTO 03005KT 10SM SCT024 SCT030 13/06 A3021 RMK AO2 T01270061
Loading
Personal Weather Stations






























Interactive Weather Map New forecast layout! Learn more

10-Day Weather Forecast

Advertisements
Track Severe Weather on mobile